sensor_id;sensor_type;location;lat;lon;timestamp;pressure;altitude;pressure_sealevel;temperature;humidity
64158;BME280;50449;51.528;5.076;2023-05-23T00:00:34;101813.28;;;23.05;47.06
64158;BME280;50449;51.528;5.076;2023-05-23T00:03:01;101824.94;;;23.02;46.90
64158;BME280;50449;51.528;5.076;2023-05-23T00:05:27;101814.50;;;22.99;46.78
64158;BME280;50449;51.528;5.076;2023-05-23T00:07:53;101813.16;;;22.96;46.88
64158;BME280;50449;51.528;5.076;2023-05-23T00:10:18;101818.94;;;22.95;46.53
64158;BME280;50449;51.528;5.076;2023-05-23T00:12:44;101818.75;;;22.91;47.09
64158;BME280;50449;51.528;5.076;2023-05-23T00:15:12;101809.13;;;22.88;46.62
64158;BME280;50449;51.528;5.076;2023-05-23T00:17:38;101812.47;;;22.85;46.79
64158;BME280;50449;51.528;5.076;2023-05-23T00:20:04;101815.84;;;22.82;47.01
64158;BME280;50449;51.528;5.076;2023-05-23T00:22:30;101815.63;;;22.79;47.03
64158;BME280;50449;51.528;5.076;2023-05-23T00:24:55;101817.03;;;22.76;46.86
64158;BME280;50449;51.528;5.076;2023-05-23T00:27:22;101818.75;;;22.72;46.77
64158;BME280;50449;51.528;5.076;2023-05-23T00:29:48;101823.72;;;22.70;46.98
64158;BME280;50449;51.528;5.076;2023-05-23T00:32:13;101815.78;;;22.68;46.82
64158;BME280;50449;51.528;5.076;2023-05-23T00:34:38;101828.22;;;22.66;47.12
64158;BME280;50449;51.528;5.076;2023-05-23T00:37:04;101829.91;;;22.62;46.89
64158;BME280;50449;51.528;5.076;2023-05-23T00:39:29;101839.88;;;22.58;47.03
64158;BME280;50449;51.528;5.076;2023-05-23T00:41:55;101835.78;;;22.55;47.32
64158;BME280;50449;51.528;5.076;2023-05-23T00:44:22;101839.94;;;22.53;47.31
64158;BME280;50449;51.528;5.076;2023-05-23T00:46:51;101856.53;;;22.47;47.39
64158;BME280;50449;51.528;5.076;2023-05-23T00:49:17;101847.78;;;22.45;47.15
64158;BME280;50449;51.528;5.076;2023-05-23T00:51:44;101851.94;;;22.43;47.16
64158;BME280;50449;51.528;5.076;2023-05-23T00:54:10;101855.59;;;22.38;47.25
64158;BME280;50449;51.528;5.076;2023-05-23T00:56:37;101858.09;;;22.35;47.08
64158;BME280;50449;51.528;5.076;2023-05-23T00:59:04;101851.56;;;22.31;47.39
64158;BME280;50449;51.528;5.076;2023-05-23T01:01:30;101854.59;;;22.29;47.06
64158;BME280;50449;51.528;5.076;2023-05-23T01:03:55;101847.75;;;22.27;46.95
64158;BME280;50449;51.528;5.076;2023-05-23T01:06:22;101860.16;;;22.24;47.31
64158;BME280;50449;51.528;5.076;2023-05-23T01:08:48;101859.63;;;22.22;46.97
64158;BME280;50449;51.528;5.076;2023-05-23T01:11:23;101855.81;;;22.18;47.28
64158;BME280;50449;51.528;5.076;2023-05-23T01:14:14;101863.53;;;22.16;47.36
64158;BME280;50449;51.528;5.076;2023-05-23T01:16:52;101860.84;;;22.11;47.66
64158;BME280;50449;51.528;5.076;2023-05-23T01:21:59;101865.28;;;22.07;47.51
64158;BME280;50449;51.528;5.076;2023-05-23T01:27:08;101878.28;;;22.01;47.51
64158;BME280;50449;51.528;5.076;2023-05-23T01:29:44;101864.31;;;21.97;47.10
64158;BME280;50449;51.528;5.076;2023-05-23T01:32:11;101869.28;;;21.95;47.28
64158;BME280;50449;51.528;5.076;2023-05-23T01:34:38;101877.00;;;21.93;47.45
64158;BME280;50449;51.528;5.076;2023-05-23T01:37:10;101872.91;;;21.91;47.49
64158;BME280;50449;51.528;5.076;2023-05-23T01:39:38;101873.50;;;21.88;47.18
64158;BME280;50449;51.528;5.076;2023-05-23T01:42:04;101879.28;;;21.86;47.37
64158;BME280;50449;51.528;5.076;2023-05-23T01:44:31;101868.34;;;21.81;47.71
64158;BME280;50449;51.528;5.076;2023-05-23T01:46:58;101874.09;;;21.79;47.75
64158;BME280;50449;51.528;5.076;2023-05-23T01:49:25;101874.41;;;21.78;47.64
64158;BME280;50449;51.528;5.076;2023-05-23T01:51:51;101877.44;;;21.76;47.35
64158;BME280;50449;51.528;5.076;2023-05-23T01:54:16;101880.50;;;21.75;47.72
64158;BME280;50449;51.528;5.076;2023-05-23T01:56:44;101874.47;;;21.73;47.63
64158;BME280;50449;51.528;5.076;2023-05-23T01:59:10;101878.63;;;21.70;47.44
64158;BME280;50449;51.528;5.076;2023-05-23T02:01:36;101873.72;;;21.67;47.62
64158;BME280;50449;51.528;5.076;2023-05-23T02:04:02;101880.31;;;21.66;47.48
64158;BME280;50449;51.528;5.076;2023-05-23T02:06:28;101877.31;;;21.63;47.54
64158;BME280;50449;51.528;5.076;2023-05-23T02:08:53;101887.78;;;21.60;47.44
64158;BME280;50449;51.528;5.076;2023-05-23T02:11:18;101883.38;;;21.59;47.77
64158;BME280;50449;51.528;5.076;2023-05-23T02:13:44;101885.91;;;21.56;47.61
64158;BME280;50449;51.528;5.076;2023-05-23T02:16:09;101888.94;;;21.54;47.80
64158;BME280;50449;51.528;5.076;2023-05-23T02:18:35;101890.31;;;21.52;47.45
64158;BME280;50449;51.528;5.076;2023-05-23T02:21:03;101895.59;;;21.48;47.92
64158;BME280;50449;51.528;5.076;2023-05-23T02:23:29;101897.81;;;21.46;47.73
64158;BME280;50449;51.528;5.076;2023-05-23T02:25:54;101907.44;;;21.44;47.65
64158;BME280;50449;51.528;5.076;2023-05-23T02:28:20;101900.59;;;21.41;47.59
64158;BME280;50449;51.528;5.076;2023-05-23T02:30:45;101897.31;;;21.39;47.90
64158;BME280;50449;51.528;5.076;2023-05-23T02:33:11;101906.91;;;21.36;47.95
64158;BME280;50449;51.528;5.076;2023-05-23T02:35:36;101908.31;;;21.34;47.80
64158;BME280;50449;51.528;5.076;2023-05-23T02:38:01;101900.38;;;21.32;48.06
64158;BME280;50449;51.528;5.076;2023-05-23T02:40:27;101900.13;;;21.29;47.50
64158;BME280;50449;51.528;5.076;2023-05-23T02:42:52;101905.06;;;21.27;47.85
64158;BME280;50449;51.528;5.076;2023-05-23T02:45:21;101909.22;;;21.24;47.71
64158;BME280;50449;51.528;5.076;2023-05-23T02:47:46;101905.94;;;21.22;47.67
64158;BME280;50449;51.528;5.076;2023-05-23T02:50:12;101899.91;;;21.20;48.13
64158;BME280;50449;51.528;5.076;2023-05-23T02:52:37;101895.81;;;21.17;48.23
64158;BME280;50449;51.528;5.076;2023-05-23T02:55:03;101895.56;;;21.14;47.74
64158;BME280;50449;51.528;5.076;2023-05-23T02:57:28;101898.59;;;21.12;48.00
64158;BME280;50449;51.528;5.076;2023-05-23T02:59:54;101896.94;;;21.11;47.89
64158;BME280;50449;51.528;5.076;2023-05-23T03:02:19;101900.25;;;21.08;48.05
64158;BME280;50449;51.528;5.076;2023-05-23T03:04:45;101896.97;;;21.06;48.00
64158;BME280;50449;51.528;5.076;2023-05-23T03:07:11;101893.72;;;21.04;47.74
64158;BME280;50449;51.528;5.076;2023-05-23T03:09:37;101898.66;;;21.02;47.80
64158;BME280;50449;51.528;5.076;2023-05-23T03:12:03;101898.13;;;21.00;47.89
64158;BME280;50449;51.528;5.076;2023-05-23T03:14:29;101902.00;;;20.99;47.97
64158;BME280;50449;51.528;5.076;2023-05-23T03:16:55;101904.19;;;20.97;47.73
64158;BME280;50449;51.528;5.076;2023-05-23T03:19:20;101897.03;;;20.96;48.12
64158;BME280;50449;51.528;5.076;2023-05-23T03:21:45;101899.25;;;20.94;48.01
64158;BME280;50449;51.528;5.076;2023-05-23T03:24:11;101898.75;;;20.92;47.89
64158;BME280;50449;51.528;5.076;2023-05-23T03:26:36;101899.00;;;20.90;47.76
64158;BME280;50449;51.528;5.076;2023-05-23T03:29:02;101906.72;;;20.88;48.33
64158;BME280;50449;51.528;5.076;2023-05-23T03:31:27;101905.91;;;20.88;48.27
64158;BME280;50449;51.528;5.076;2023-05-23T03:33:52;101911.97;;;20.85;47.86
64158;BME280;50449;51.528;5.076;2023-05-23T03:36:18;101905.13;;;20.82;47.86
64158;BME280;50449;51.528;5.076;2023-05-23T03:38:43;101910.88;;;20.81;47.92
64158;BME280;50449;51.528;5.076;2023-05-23T03:41:09;101911.44;;;20.78;47.96
64158;BME280;50449;51.528;5.076;2023-05-23T03:43:34;101909.81;;;20.77;48.42
64158;BME280;50449;51.528;5.076;2023-05-23T03:45:59;101916.41;;;20.75;48.34
64158;BME280;50449;51.528;5.076;2023-05-23T03:48:25;101911.22;;;20.74;48.32
64158;BME280;50449;51.528;5.076;2023-05-23T03:50:50;101911.47;;;20.72;48.39
64158;BME280;50449;51.528;5.076;2023-05-23T03:53:16;101918.34;;;20.70;48.45
64158;BME280;50449;51.528;5.076;2023-05-23T03:55:41;101925.22;;;20.67;48.07
64158;BME280;50449;51.528;5.076;2023-05-23T03:58:07;101929.09;;;20.66;48.22
64158;BME280;50449;51.528;5.076;2023-05-23T04:00:32;101926.63;;;20.65;48.04
64158;BME280;50449;51.528;5.076;2023-05-23T04:02:57;101927.19;;;20.62;48.63
64158;BME280;50449;51.528;5.076;2023-05-23T04:05:23;101934.56;;;20.61;48.13
64158;BME280;50449;51.528;5.076;2023-05-23T04:07:48;101941.44;;;20.59;48.45
64158;BME280;50449;51.528;5.076;2023-05-23T04:10:15;101941.75;;;20.57;48.49
64158;BME280;50449;51.528;5.076;2023-05-23T04:12:41;101942.03;;;20.56;48.32
64158;BME280;50449;51.528;5.076;2023-05-23T04:15:07;101954.13;;;20.55;48.63
64158;BME280;50449;51.528;5.076;2023-05-23T04:17:33;101954.91;;;20.50;48.53
64158;BME280;50449;51.528;5.076;2023-05-23T04:19:59;101944.22;;;20.48;48.19
64158;BME280;50449;51.528;5.076;2023-05-23T04:22:25;101946.44;;;20.46;48.35
64158;BME280;50449;51.528;5.076;2023-05-23T04:24:50;101947.81;;;20.44;48.66
64158;BME280;50449;51.528;5.076;2023-05-23T04:27:15;101954.38;;;20.43;48.63
64158;BME280;50449;51.528;5.076;2023-05-23T04:29:41;101956.59;;;20.41;48.58
64158;BME280;50449;51.528;5.076;2023-05-23T04:32:06;101956.06;;;20.39;48.64
64158;BME280;50449;51.528;5.076;2023-05-23T04:34:32;101957.44;;;20.36;48.81
64158;BME280;50449;51.528;5.076;2023-05-23T04:37:02;101963.22;;;20.35;48.25
64158;BME280;50449;51.528;5.076;2023-05-23T04:39:28;101966.22;;;20.33;48.30
64158;BME280;50449;51.528;5.076;2023-05-23T04:41:54;101966.50;;;20.31;48.87
64158;BME280;50449;51.528;5.076;2023-05-23T04:44:21;101973.38;;;20.29;48.91
64158;BME280;50449;51.528;5.076;2023-05-23T04:46:46;101969.28;;;20.26;48.67
64158;BME280;50449;51.528;5.076;2023-05-23T04:49:12;101970.34;;;20.25;48.71
64158;BME280;50449;51.528;5.076;2023-05-23T04:51:38;101979.69;;;20.24;48.86
64158;BME280;50449;51.528;5.076;2023-05-23T04:54:04;101973.66;;;20.22;48.49
64158;BME280;50449;51.528;5.076;2023-05-23T04:56:29;101974.22;;;20.19;48.95
64158;BME280;50449;51.528;5.076;2023-05-23T04:58:55;101981.91;;;20.17;48.98
64158;BME280;50449;51.528;5.076;2023-05-23T05:01:21;101984.09;;;20.15;48.51
64158;BME280;50449;51.528;5.076;2023-05-23T05:03:50;101992.63;;;20.14;48.58
64158;BME280;50449;51.528;5.076;2023-05-23T05:06:16;101990.69;;;20.14;48.61
64158;BME280;50449;51.528;5.076;2023-05-23T05:08:42;101990.13;;;20.12;48.59
64158;BME280;50449;51.528;5.076;2023-05-23T05:11:08;101988.78;;;20.09;48.84
64158;BME280;50449;51.528;5.076;2023-05-23T05:13:34;101992.91;;;20.07;48.79
64158;BME280;50449;51.528;5.076;2023-05-23T05:16:00;101993.16;;;20.05;48.76
64158;BME280;50449;51.528;5.076;2023-05-23T05:18:25;101997.81;;;20.05;48.66
64158;BME280;50449;51.528;5.076;2023-05-23T05:20:51;101997.28;;;20.03;48.46
64158;BME280;50449;51.528;5.076;2023-05-23T05:23:16;101992.91;;;20.02;48.85
64158;BME280;50449;51.528;5.076;2023-05-23T05:25:42;102001.69;;;19.99;48.61
64158;BME280;50449;51.528;5.076;2023-05-23T05:28:07;102008.25;;;19.98;48.55
64158;BME280;50449;51.528;5.076;2023-05-23T05:30:33;102011.28;;;19.96;48.79
64158;BME280;50449;51.528;5.076;2023-05-23T05:33:03;102012.66;;;19.94;48.57
64158;BME280;50449;51.528;5.076;2023-05-23T05:35:34;102022.53;;;19.89;48.60
64158;BME280;50449;51.528;5.076;2023-05-23T05:38:00;102029.38;;;19.87;49.25
64158;BME280;50449;51.528;5.076;2023-05-23T05:40:27;102026.06;;;19.85;48.69
64158;BME280;50449;51.528;5.076;2023-05-23T05:42:52;102027.19;;;19.84;48.94
64158;BME280;50449;51.528;5.076;2023-05-23T05:45:17;102036.78;;;19.81;49.05
64158;BME280;50449;51.528;5.076;2023-05-23T05:47:44;102033.50;;;19.79;48.95
64158;BME280;50449;51.528;5.076;2023-05-23T05:50:09;102038.41;;;19.77;48.75
64158;BME280;50449;51.528;5.076;2023-05-23T05:52:36;102033.22;;;19.76;49.16
64158;BME280;50449;51.528;5.076;2023-05-23T05:55:08;102042.81;;;19.73;48.79
64158;BME280;50449;51.528;5.076;2023-05-23T05:57:36;102041.16;;;19.72;48.70
64158;BME280;50449;51.528;5.076;2023-05-23T06:00:05;102044.44;;;19.69;48.30
64158;BME280;50449;51.528;5.076;2023-05-23T06:02:37;102046.34;;;19.63;48.39
64158;BME280;50449;51.528;5.076;2023-05-23T06:05:02;102056.75;;;19.61;48.11
64158;BME280;50449;51.528;5.076;2023-05-23T06:07:28;102049.88;;;19.59;48.27
64158;BME280;50449;51.528;5.076;2023-05-23T06:09:53;102064.66;;;19.58;48.54
64158;BME280;50449;51.528;5.076;2023-05-23T06:12:19;102062.22;;;19.56;48.62
64158;BME280;50449;51.528;5.076;2023-05-23T06:14:44;102065.22;;;19.55;48.49
64158;BME280;50449;51.528;5.076;2023-05-23T06:17:10;102062.75;;;19.53;48.36
64158;BME280;50449;51.528;5.076;2023-05-23T06:19:35;102058.34;;;19.52;48.74
64158;BME280;50449;51.528;5.076;2023-05-23T06:22:02;102063.56;;;19.49;48.72
64158;BME280;50449;51.528;5.076;2023-05-23T06:24:28;102072.88;;;19.48;48.90
64158;BME280;50449;51.528;5.076;2023-05-23T06:26:53;102070.41;;;19.46;49.03
64158;BME280;50449;51.528;5.076;2023-05-23T06:29:18;102069.59;;;19.45;49.01
64158;BME280;50449;51.528;5.076;2023-05-23T06:31:44;102071.78;;;19.43;48.78
64158;BME280;50449;51.528;5.076;2023-05-23T06:34:09;102076.69;;;19.41;48.91
64158;BME280;50449;51.528;5.076;2023-05-23T06:36:35;102077.81;;;19.40;48.74
64158;BME280;50449;51.528;5.076;2023-05-23T06:39:00;102075.31;;;19.39;48.52
64158;BME280;50449;51.528;5.076;2023-05-23T06:41:25;102076.44;;;19.38;48.55
64158;BME280;50449;51.528;5.076;2023-05-23T06:43:51;102068.72;;;19.35;48.34
64158;BME280;50449;51.528;5.076;2023-05-23T06:46:17;102075.31;;;19.34;48.75
64158;BME280;50449;51.528;5.076;2023-05-23T06:48:42;102079.16;;;19.33;48.28
64158;BME280;50449;51.528;5.076;2023-05-23T06:51:07;102081.34;;;19.31;48.02
64158;BME280;50449;51.528;5.076;2023-05-23T06:53:33;102088.16;;;19.28;48.10
64158;BME280;50449;51.528;5.076;2023-05-23T06:55:58;102078.56;;;19.26;48.17
64158;BME280;50449;51.528;5.076;2023-05-23T06:58:24;102098.00;;;19.24;48.02
64158;BME280;50449;51.528;5.076;2023-05-23T07:00:51;102091.41;;;19.25;48.41
64158;BME280;50449;51.528;5.076;2023-05-23T07:03:16;102098.81;;;19.24;48.47
64158;BME280;50449;51.528;5.076;2023-05-23T07:05:41;102100.75;;;19.24;48.30
64158;BME280;50449;51.528;5.076;2023-05-23T07:08:07;102106.47;;;19.22;48.08
64158;BME280;50449;51.528;5.076;2023-05-23T07:10:34;102116.63;;;19.22;48.31
64158;BME280;50449;51.528;5.076;2023-05-23T07:13:00;102110.31;;;19.21;48.43
64158;BME280;50449;51.528;5.076;2023-05-23T07:15:25;102114.97;;;19.21;48.00
64158;BME280;50449;51.528;5.076;2023-05-23T07:17:51;102121.00;;;19.18;48.37
64158;BME280;50449;51.528;5.076;2023-05-23T07:20:16;102115.78;;;19.16;48.09
64158;BME280;50449;51.528;5.076;2023-05-23T07:22:42;102121.25;;;19.16;48.40
64158;BME280;50449;51.528;5.076;2023-05-23T07:25:07;102123.19;;;19.16;48.38
64158;BME280;50449;51.528;5.076;2023-05-23T07:27:33;102116.88;;;19.15;47.98
64158;BME280;50449;51.528;5.076;2023-05-23T07:29:59;102117.69;;;19.16;48.05
64158;BME280;50449;51.528;5.076;2023-05-23T07:32:24;102121.50;;;19.15;48.09
64158;BME280;50449;51.528;5.076;2023-05-23T07:34:49;102126.19;;;19.14;48.17
64158;BME280;50449;51.528;5.076;2023-05-23T07:37:15;102132.75;;;19.13;48.00
64158;BME280;50449;51.528;5.076;2023-05-23T07:39:40;102145.34;;;19.14;47.99
64158;BME280;50449;51.528;5.076;2023-05-23T07:42:06;102133.00;;;19.12;48.01
64158;BME280;50449;51.528;5.076;2023-05-23T07:44:31;102148.63;;;19.11;48.17
64158;BME280;50449;51.528;5.076;2023-05-23T07:46:56;102134.13;;;19.11;48.04
64158;BME280;50449;51.528;5.076;2023-05-23T07:49:22;102137.91;;;19.10;48.04
64158;BME280;50449;51.528;5.076;2023-05-23T07:51:47;102136.28;;;19.09;47.82
64158;BME280;50449;51.528;5.076;2023-05-23T07:54:13;102146.44;;;19.08;48.16
64158;BME280;50449;51.528;5.076;2023-05-23T07:56:38;102143.69;;;19.08;48.06
64158;BME280;50449;51.528;5.076;2023-05-23T07:59:03;102152.16;;;19.07;48.15
64158;BME280;50449;51.528;5.076;2023-05-23T08:01:29;102145.59;;;19.08;48.24
64158;BME280;50449;51.528;5.076;2023-05-23T08:03:55;102144.75;;;19.07;47.93
64158;BME280;50449;51.528;5.076;2023-05-23T08:06:21;102150.53;;;19.06;47.79
64158;BME280;50449;51.528;5.076;2023-05-23T08:08:46;102158.75;;;19.06;47.51
64158;BME280;50449;51.528;5.076;2023-05-23T08:11:12;102158.75;;;19.06;48.12
64158;BME280;50449;51.528;5.076;2023-05-23T08:13:39;102162.53;;;19.05;47.85
64158;BME280;50449;51.528;5.076;2023-05-23T08:16:04;102162.53;;;19.05;48.29
64158;BME280;50449;51.528;5.076;2023-05-23T08:18:30;102163.91;;;19.02;48.10
64158;BME280;50449;51.528;5.076;2023-05-23T08:20:55;102157.59;;;19.01;48.23
64158;BME280;50449;51.528;5.076;2023-05-23T08:23:21;102165.81;;;19.01;48.05
64158;BME280;50449;51.528;5.076;2023-05-23T08:25:46;102162.25;;;19.01;48.04
64158;BME280;50449;51.528;5.076;2023-05-23T08:28:12;102157.59;;;19.01;47.83
64158;BME280;50449;51.528;5.076;2023-05-23T08:30:37;102154.03;;;19.01;48.17
64158;BME280;50449;51.528;5.076;2023-05-23T08:33:02;102152.41;;;19.00;48.30
64158;BME280;50449;51.528;5.076;2023-05-23T08:35:29;102157.88;;;19.00;47.88
64158;BME280;50449;51.528;5.076;2023-05-23T08:38:00;102154.31;;;18.99;48.32
64158;BME280;50449;51.528;5.076;2023-05-23T08:40:26;102154.31;;;18.99;48.22
64158;BME280;50449;51.528;5.076;2023-05-23T08:42:54;102165.25;;;18.99;48.04
64158;BME280;50449;51.528;5.076;2023-05-23T08:45:20;102162.50;;;18.99;48.28
64158;BME280;50449;51.528;5.076;2023-05-23T08:47:46;102170.72;;;18.99;48.29
64158;BME280;50449;51.528;5.076;2023-05-23T08:50:13;102168.84;;;19.00;48.31
64158;BME280;50449;51.528;5.076;2023-05-23T08:52:58;102171.84;;;18.98;48.09
64158;BME280;50449;51.528;5.076;2023-05-23T08:55:25;102177.31;;;18.98;48.05
64158;BME280;50449;51.528;5.076;2023-05-23T08:57:52;102168.28;;;18.98;47.77
64158;BME280;50449;51.528;5.076;2023-05-23T09:00:18;102171.84;;;18.98;48.34
64158;BME280;50449;51.528;5.076;2023-05-23T09:02:44;102173.47;;;18.99;48.19
64158;BME280;50449;51.528;5.076;2023-05-23T09:05:11;102178.94;;;18.99;47.84
64158;BME280;50449;51.528;5.076;2023-05-23T09:07:36;102176.78;;;19.01;47.94
64158;BME280;50449;51.528;5.076;2023-05-23T09:10:04;102180.31;;;19.02;47.89
64158;BME280;50449;51.528;5.076;2023-05-23T09:12:30;102176.53;;;19.03;47.69
64158;BME280;50449;51.528;5.076;2023-05-23T09:14:57;102178.44;;;19.02;47.94
64158;BME280;50449;51.528;5.076;2023-05-23T09:17:23;102182.25;;;19.01;48.20
64158;BME280;50449;51.528;5.076;2023-05-23T09:19:48;102184.16;;;19.01;47.94
64158;BME280;50449;51.528;5.076;2023-05-23T09:22:14;102183.06;;;19.02;48.27
64158;BME280;50449;51.528;5.076;2023-05-23T09:24:40;102185.56;;;19.03;48.14
64158;BME280;50449;51.528;5.076;2023-05-23T09:27:06;102182.81;;;19.03;48.09
64158;BME280;50449;51.528;5.076;2023-05-23T09:29:36;102186.38;;;19.04;48.01
64158;BME280;50449;51.528;5.076;2023-05-23T09:32:10;102185.31;;;19.05;47.74
64158;BME280;50449;51.528;5.076;2023-05-23T09:34:40;102185.31;;;19.05;47.86
64158;BME280;50449;51.528;5.076;2023-05-23T09:37:06;102181.47;;;19.06;48.37
64158;BME280;50449;51.528;5.076;2023-05-23T09:39:36;102191.59;;;19.06;47.95
64158;BME280;50449;51.528;5.076;2023-05-23T09:42:01;102191.59;;;19.06;47.94
64158;BME280;50449;51.528;5.076;2023-05-23T09:44:27;102181.47;;;19.06;47.91
64158;BME280;50449;51.528;5.076;2023-05-23T09:46:52;102186.69;;;19.08;47.62
64158;BME280;50449;51.528;5.076;2023-05-23T09:49:18;102194.63;;;19.09;47.31
64158;BME280;50449;51.528;5.076;2023-05-23T09:51:43;102191.63;;;19.11;47.24
64158;BME280;50449;51.528;5.076;2023-05-23T09:54:20;102184.22;;;19.11;47.27
64158;BME280;50449;51.528;5.076;2023-05-23T09:56:46;102190.53;;;19.12;47.69
64158;BME280;50449;51.528;5.076;2023-05-23T09:59:14;102183.13;;;19.12;47.33
64158;BME280;50449;51.528;5.076;2023-05-23T10:01:45;102192.19;;;19.13;47.60
64158;BME280;50449;51.528;5.076;2023-05-23T10:04:13;102196.31;;;19.15;47.56
64158;BME280;50449;51.528;5.076;2023-05-23T10:06:49;102186.44;;;19.14;47.64
64158;BME280;50449;51.528;5.076;2023-05-23T10:09:18;102201.50;;;19.17;47.48
64158;BME280;50449;51.528;5.076;2023-05-23T10:14:37;102190.00;;;19.20;47.62
64158;BME280;50449;51.528;5.076;2023-05-23T10:17:16;102189.50;;;19.23;47.11
64158;BME280;50449;51.528;5.076;2023-05-23T10:19:48;102194.44;;;19.26;47.56
64158;BME280;50449;51.528;5.076;2023-05-23T10:22:15;102186.78;;;19.28;47.19
64158;BME280;50449;51.528;5.076;2023-05-23T10:24:41;102188.19;;;19.31;47.13
64158;BME280;50449;51.528;5.076;2023-05-23T10:27:10;102192.31;;;19.33;47.55
64158;BME280;50449;51.528;5.076;2023-05-23T10:29:36;102199.97;;;19.36;47.47
64158;BME280;50449;51.528;5.076;2023-05-23T10:32:03;102206.59;;;19.40;47.31
64158;BME280;50449;51.528;5.076;2023-05-23T10:37:44;102187.13;;;19.47;46.96
64158;BME280;50449;51.528;5.076;2023-05-23T10:40:30;102192.94;;;19.51;47.46
64158;BME280;50449;51.528;5.076;2023-05-23T10:43:11;102186.38;;;19.57;46.63
64158;BME280;50449;51.528;5.076;2023-05-23T10:45:41;102191.88;;;19.62;46.38
64158;BME280;50449;51.528;5.076;2023-05-23T10:51:00;102196.59;;;19.72;47.14
64158;BME280;50449;51.528;5.076;2023-05-23T10:53:28;102189.22;;;19.77;46.89
64158;BME280;50449;51.528;5.076;2023-05-23T10:55:55;102192.25;;;19.81;46.87
64158;BME280;50449;51.528;5.076;2023-05-23T10:58:20;102195.81;;;19.86;46.69
64158;BME280;50449;51.528;5.076;2023-05-23T11:00:53;102199.41;;;19.92;46.96
64158;BME280;50449;51.528;5.076;2023-05-23T11:06:39;102191.19;;;20.02;46.89
64158;BME280;50449;51.528;5.076;2023-05-23T11:09:17;102191.19;;;20.07;47.00
64158;BME280;50449;51.528;5.076;2023-05-23T11:15:05;102190.97;;;20.19;46.53
64158;BME280;50449;51.528;5.076;2023-05-23T11:17:17;102188.47;;;20.28;46.85
64158;BME280;50449;51.528;5.076;2023-05-23T11:20:05;102178.63;;;20.32;47.00
64158;BME280;50449;51.528;5.076;2023-05-23T11:22:34;102184.09;;;20.37;46.76
64158;BME280;50449;51.528;5.076;2023-05-23T11:25:01;102189.59;;;20.42;47.12
64158;BME280;50449;51.528;5.076;2023-05-23T11:30:00;102191.00;;;20.55;46.76
64158;BME280;50449;51.528;5.076;2023-05-23T11:32:27;102198.97;;;20.62;46.15
64158;BME280;50449;51.528;5.076;2023-05-23T11:34:54;102191.28;;;20.69;45.97
64158;BME280;50449;51.528;5.076;2023-05-23T11:37:20;102195.41;;;20.77;46.17
64158;BME280;50449;51.528;5.076;2023-05-23T11:39:48;102192.34;;;20.83;45.80
64158;BME280;50449;51.528;5.076;2023-05-23T11:42:13;102206.63;;;20.90;46.06
64158;BME280;50449;51.528;5.076;2023-05-23T11:44:39;102200.03;;;20.96;45.79
64158;BME280;50449;51.528;5.076;2023-05-23T11:47:05;102212.38;;;21.04;45.46
64158;BME280;50449;51.528;5.076;2023-05-23T11:49:34;102198.63;;;21.09;46.06
64158;BME280;50449;51.528;5.076;2023-05-23T11:52:01;102205.50;;;21.17;45.38
64158;BME280;50449;51.528;5.076;2023-05-23T11:54:27;102199.97;;;21.22;45.85
64158;BME280;50449;51.528;5.076;2023-05-23T11:56:54;102200.78;;;21.28;45.57
64158;BME280;50449;51.528;5.076;2023-05-23T11:59:23;102206.25;;;21.33;45.28
64158;BME280;50449;51.528;5.076;2023-05-23T12:01:50;102187.00;;;21.38;45.56
64158;BME280;50449;51.528;5.076;2023-05-23T12:04:16;102198.81;;;21.44;45.49
64158;BME280;50449;51.528;5.076;2023-05-23T12:06:41;102206.22;;;21.48;45.67
64158;BME280;50449;51.528;5.076;2023-05-23T12:09:10;102205.41;;;21.53;45.13
64158;BME280;50449;51.528;5.076;2023-05-23T12:11:38;102212.50;;;21.59;45.33
64158;BME280;50449;51.528;5.076;2023-05-23T12:14:05;102211.66;;;21.64;44.72
64158;BME280;50449;51.528;5.076;2023-05-23T12:16:32;102214.41;;;21.69;44.38
64158;BME280;50449;51.528;5.076;2023-05-23T12:18:59;102216.84;;;21.75;43.81
64158;BME280;50449;51.528;5.076;2023-05-23T12:21:25;102213.53;;;21.78;43.95
64158;BME280;50449;51.528;5.076;2023-05-23T12:23:51;102211.03;;;21.82;44.24
64158;BME280;50449;51.528;5.076;2023-05-23T12:26:17;102215.69;;;21.87;44.35
64158;BME280;50449;51.528;5.076;2023-05-23T12:28:44;102215.09;;;21.90;44.40
64158;BME280;50449;51.528;5.076;2023-05-23T12:31:20;102224.72;;;21.92;44.58
64158;BME280;50449;51.528;5.076;2023-05-23T12:33:47;102227.19;;;21.94;44.20
64158;BME280;50449;51.528;5.076;2023-05-23T12:36:26;102219.22;;;21.97;43.98
64158;BME280;50449;51.528;5.076;2023-05-23T12:39:01;102224.97;;;22.01;43.41
64158;BME280;50449;51.528;5.076;2023-05-23T12:41:27;102223.31;;;22.05;43.56
64158;BME280;50449;51.528;5.076;2023-05-23T12:43:53;102219.97;;;22.08;43.73
64158;BME280;50449;51.528;5.076;2023-05-23T12:46:20;102225.16;;;22.10;43.29
64158;BME280;50449;51.528;5.076;2023-05-23T12:48:46;102230.94;;;22.13;43.83
64158;BME280;50449;51.528;5.076;2023-05-23T12:51:15;102219.63;;;22.15;43.06
64158;BME280;50449;51.528;5.076;2023-05-23T12:53:41;102228.44;;;22.17;43.18
64158;BME280;50449;51.528;5.076;2023-05-23T12:56:07;102227.88;;;22.20;42.81
64158;BME280;50449;51.528;5.076;2023-05-23T12:58:33;102228.44;;;22.22;43.28
64158;BME280;50449;51.528;5.076;2023-05-23T13:01:00;102233.34;;;22.25;43.26
64158;BME280;50449;51.528;5.076;2023-05-23T13:03:25;102233.09;;;22.27;42.60
64158;BME280;50449;51.528;5.076;2023-05-23T13:05:51;102228.94;;;22.29;42.76
64158;BME280;50449;51.528;5.076;2023-05-23T13:08:18;102224.78;;;22.32;42.49
64158;BME280;50449;51.528;5.076;2023-05-23T13:10:44;102224.22;;;22.35;42.19